Time;durP1;ratioP1;P1;durP2;ratioP2;P2;SDS_P1;SDS_P2;PMS_P1;PMS_P2;Temp;Humidity;BMP_temperature;BMP_pressure;BME280_temperature;BME280_humidity;BME280_pressure;Samples;Min_cycle;Max_cycle;Signal;HPM_P1;HPM_P2
2022/09/21 00:00:14;;;;;;;2.50;1.80;;;17.30;52.30;;;;;;4891080;29;20645;-44
2022/09/21 00:02:45;;;;;;;3.10;1.70;;;17.30;52.20;;;;;;4883648;29;20210;-52
2022/09/21 00:05:16;;;;;;;2.38;1.70;;;17.30;52.30;;;;;;4881117;29;20232;-37
2022/09/21 00:07:48;;;;;;;2.22;1.77;;;17.30;52.20;;;;;;4881251;29;20325;-45
2022/09/21 00:10:20;;;;;;;2.33;1.80;;;17.30;52.30;;;;;;4893322;29;20200;-39
2022/09/21 00:12:50;;;;;;;2.05;1.60;;;17.30;52.30;;;;;;4880057;29;20197;-39
2022/09/21 00:15:21;;;;;;;2.85;1.98;;;17.30;52.30;;;;;;4883652;29;20233;-40
2022/09/21 00:17:55;;;;;;;2.60;1.80;;;17.30;52.20;;;;;;4877326;29;20217;-35
2022/09/21 00:20:26;;;;;;;2.22;1.65;;;17.30;52.30;;;;;;4886382;29;20213;-34
2022/09/21 00:22:59;;;;;;;3.05;1.70;;;17.30;52.30;;;;;;4877069;29;20233;-40
2022/09/21 00:25:30;;;;;;;2.28;1.83;;;17.30;52.30;;;;;;4881908;29;20209;-39
2022/09/21 00:28:01;;;;;;;2.97;1.90;;;17.40;52.30;;;;;;4877621;29;20588;-38
2022/09/21 00:30:31;;;;;;;2.38;1.85;;;17.30;52.30;;;;;;4893081;29;20196;-35
2022/09/21 00:33:02;;;;;;;1.70;1.50;;;17.30;52.30;;;;;;4874286;29;20225;-44
2022/09/21 00:35:33;;;;;;;2.72;1.80;;;17.30;52.30;;;;;;4893777;29;20224;-39
2022/09/21 00:38:06;;;;;;;3.38;1.70;;;17.30;52.40;;;;;;4895739;29;20706;-35
2022/09/21 00:40:37;;;;;;;3.15;1.73;;;17.40;52.40;;;;;;4896043;29;20669;-41
2022/09/21 00:43:18;;;;;;;1.75;1.50;;;17.40;52.50;;;;;;4879398;29;20214;-40
2022/09/21 00:45:51;;;;;;;2.33;1.60;;;17.40;52.50;;;;;;4894566;29;20649;-49
2022/09/21 00:48:22;;;;;;;3.92;1.58;;;17.40;52.40;;;;;;4895064;29;20217;-48
2022/09/21 00:50:55;;;;;;;2.85;1.58;;;17.40;52.40;;;;;;4895434;29;20201;-47
2022/09/21 00:53:28;;;;;;;2.10;1.90;;;17.40;52.40;;;;;;4895376;29;20200;-52
2022/09/21 00:56:01;;;;;;;1.88;1.60;;;17.40;52.50;;;;;;4879489;29;20264;-51
2022/09/21 00:58:35;;;;;;;2.72;2.15;;;17.40;52.50;;;;;;4877286;29;20313;-55
2022/09/21 01:01:06;;;;;;;2.70;1.73;;;17.40;52.50;;;;;;4895005;29;20204;-55
2022/09/21 01:03:37;;;;;;;1.90;1.67;;;17.40;52.50;;;;;;4879829;29;20209;-51
2022/09/21 01:06:07;;;;;;;2.58;1.60;;;17.40;52.40;;;;;;4857967;29;20675;-46
2022/09/21 01:08:40;;;;;;;2.50;1.70;;;17.40;52.50;;;;;;4859187;29;20237;-53
2022/09/21 01:11:26;;;;;;;2.15;1.52;;;17.40;52.50;;;;;;4894281;29;20686;-47
2022/09/21 01:14:16;;;;;;;2.58;1.65;;;17.40;52.40;;;;;;4879166;29;20265;-52
2022/09/21 01:16:53;;;;;;;3.00;1.70;;;17.40;52.40;;;;;;4874943;29;20237;-54
2022/09/21 01:19:52;;;;;;;3.00;1.73;;;17.50;52.40;;;;;;4882078;29;20695;-50
2022/09/21 01:22:33;;;;;;;1.98;1.60;;;17.50;52.50;;;;;;4895030;29;20200;-55
2022/09/21 01:25:18;;;;;;;2.67;1.60;;;17.50;52.50;;;;;;4887864;29;20654;-45
2022/09/21 01:28:08;;;;;;;2.78;1.83;;;17.50;52.50;;;;;;4875946;29;20229;-53
2022/09/21 01:30:44;;;;;;;1.80;1.40;;;17.50;52.60;;;;;;4890841;29;20672;-38
2022/09/21 01:33:24;;;;;;;3.72;1.80;;;17.50;52.60;;;;;;4878140;29;20201;-56
2022/09/21 01:35:59;;;;;;;2.95;1.73;;;17.50;52.70;;;;;;4892519;29;20606;-45
2022/09/21 01:38:35;;;;;;;2.45;1.70;;;17.50;52.80;;;;;;4886853;29;20225;-50
2022/09/21 01:41:08;;;;;;;2.53;1.90;;;17.50;52.80;;;;;;4894784;29;20563;-41
2022/09/21 01:43:41;;;;;;;2.15;1.60;;;17.50;52.90;;;;;;4895569;29;20215;-35
2022/09/21 01:46:18;;;;;;;2.50;1.35;;;17.50;52.80;;;;;;4895488;29;20197;-49
2022/09/21 01:48:53;;;;;;;1.52;1.30;;;17.50;52.80;;;;;;4885375;29;20233;-37
2022/09/21 01:51:29;;;;;;;2.70;1.50;;;17.50;52.80;;;;;;4874356;29;20205;-47
2022/09/21 01:54:06;;;;;;;2.58;1.30;;;17.50;52.80;;;;;;4880959;29;20205;-54
2022/09/21 01:56:40;;;;;;;2.47;1.60;;;17.60;52.80;;;;;;4866032;29;20721;-54
2022/09/21 01:59:17;;;;;;;1.77;1.40;;;17.60;52.90;;;;;;4872321;29;20718;-54
2022/09/21 02:01:53;;;;;;;2.13;1.42;;;17.60;52.90;;;;;;4897220;29;20665;-42
2022/09/21 02:04:24;;;;;;;2.95;1.55;;;17.60;52.90;;;;;;4883376;29;20201;-57
2022/09/21 02:06:56;;;;;;;1.77;1.50;;;17.60;52.90;;;;;;4898758;29;20201;-44
2022/09/21 02:09:27;;;;;;;2.33;1.50;;;17.60;52.80;;;;;;4910642;23;20238;-39
2022/09/21 02:12:00;;;;;;;1.58;1.33;;;17.60;52.80;;;;;;4880323;29;20201;-36
2022/09/21 02:14:32;;;;;;;2.67;1.90;;;17.60;52.80;;;;;;4908103;29;20201;-38
2022/09/21 02:17:16;;;;;;;2.40;1.85;;;17.60;52.80;;;;;;4898893;29;20224;-35
2022/09/21 02:19:53;;;;;;;2.00;1.55;;;17.60;52.80;;;;;;4879030;29;20807;-42
2022/09/21 02:22:34;;;;;;;2.33;1.45;;;17.60;53.30;;;;;;4879377;29;20370;-35
2022/09/21 02:25:12;;;;;;;1.90;1.40;;;17.60;52.80;;;;;;4879763;29;20194;-36
2022/09/21 02:27:52;;;;;;;1.90;1.58;;;17.60;52.70;;;;;;4880373;29;20281;-41
2022/09/21 02:30:24;;;;;;;1.63;1.50;;;17.60;52.80;;;;;;4879423;29;20240;-36
2022/09/21 02:33:03;;;;;;;3.45;1.85;;;17.60;52.80;;;;;;4880234;29;20704;-36
2022/09/21 02:35:38;;;;;;;2.08;1.58;;;17.60;52.90;;;;;;4879255;29;20202;-36
2022/09/21 02:38:16;;;;;;;2.22;1.70;;;17.60;52.80;;;;;;4878895;29;20216;-44
2022/09/21 02:40:53;;;;;;;1.83;1.35;;;17.60;52.80;;;;;;4879565;29;20193;-35
2022/09/21 02:43:29;;;;;;;1.63;1.27;;;17.60;52.80;;;;;;4878874;29;20209;-40
2022/09/21 02:46:04;;;;;;;2.10;1.40;;;17.60;52.80;;;;;;4878774;29;20212;-35
2022/09/21 02:48:40;;;;;;;2.75;1.50;;;17.60;52.80;;;;;;4878735;29;20243;-40
2022/09/21 02:51:15;;;;;;;1.85;1.50;;;17.60;52.80;;;;;;4879054;29;20233;-38
2022/09/21 02:53:48;;;;;;;2.05;1.60;;;17.60;52.80;;;;;;4861823;29;20312;-38
2022/09/21 02:56:19;;;;;;;2.20;1.48;;;17.60;52.80;;;;;;4876995;29;20795;-35
2022/09/21 02:58:53;;;;;;;2.20;1.60;;;17.60;52.80;;;;;;4879050;29;20335;-36
2022/09/21 03:01:25;;;;;;;1.92;1.52;;;17.70;52.90;;;;;;4878463;29;20197;-38
2022/09/21 03:03:58;;;;;;;2.40;1.85;;;17.70;53.00;;;;;;4878215;29;20213;-35
2022/09/21 03:06:29;;;;;;;3.08;2.20;;;17.60;52.90;;;;;;4878997;29;20198;-36
2022/09/21 03:08:59;;;;;;;2.28;1.92;;;17.70;53.00;;;;;;4878881;29;20754;-35
2022/09/21 03:11:30;;;;;;;2.28;1.92;;;17.70;53.10;;;;;;4878650;29;20881;-39
2022/09/21 03:14:01;;;;;;;2.40;2.03;;;17.70;53.10;;;;;;4877873;29;20617;-39
2022/09/21 03:16:31;;;;;;;2.95;2.20;;;17.70;53.10;;;;;;4875814;29;20225;-38
2022/09/21 03:19:04;;;;;;;2.88;2.00;;;17.70;53.10;;;;;;4877810;29;20221;-42
2022/09/21 03:21:35;;;;;;;3.70;2.55;;;17.70;53.10;;;;;;4879960;29;20237;-38
2022/09/21 03:24:06;;;;;;;3.28;2.53;;;17.70;53.20;;;;;;4878017;29;20210;-37
2022/09/21 03:26:37;;;;;;;2.85;2.50;;;17.70;53.30;;;;;;4876278;29;20206;-36
2022/09/21 03:29:07;;;;;;;3.25;2.42;;;17.70;53.40;;;;;;4875842;29;20225;-35
2022/09/21 03:31:38;;;;;;;3.60;2.55;;;17.70;53.40;;;;;;4869914;29;20574;-34
2022/09/21 03:34:11;;;;;;;3.05;2.35;;;17.70;53.40;;;;;;4877740;29;20292;-34
2022/09/21 03:36:41;;;;;;;3.60;2.60;;;17.70;53.40;;;;;;4877932;29;20217;-34
2022/09/21 03:39:12;;;;;;;2.58;2.38;;;17.70;53.40;;;;;;4860630;29;20222;-36
2022/09/21 03:41:42;;;;;;;2.90;2.38;;;17.70;53.50;;;;;;4867832;29;20208;-35
2022/09/21 03:44:16;;;;;;;4.18;3.05;;;17.70;53.40;;;;;;4877519;29;20814;-34
2022/09/21 03:46:47;;;;;;;3.95;2.65;;;17.70;53.40;;;;;;4878018;29;20563;-37
2022/09/21 03:49:19;;;;;;;3.80;2.70;;;17.70;53.40;;;;;;4875266;29;20222;-34
2022/09/21 03:51:50;;;;;;;3.50;2.67;;;17.70;53.60;;;;;;4868168;29;20662;-34
2022/09/21 03:54:21;;;;;;;3.38;2.30;;;17.70;53.50;;;;;;4878277;29;20228;-37
2022/09/21 03:56:51;;;;;;;3.13;2.70;;;17.70;53.50;;;;;;4885389;29;20629;-34
2022/09/21 03:59:22;;;;;;;4.53;3.13;;;17.70;53.60;;;;;;4877648;29;20618;-34
2022/09/21 04:01:53;;;;;;;3.83;2.83;;;17.70;53.60;;;;;;4878208;29;20200;-41
2022/09/21 04:04:25;;;;;;;4.28;3.00;;;17.70;53.70;;;;;;4877996;29;20205;-34
2022/09/21 04:06:56;;;;;;;2.97;2.58;;;17.70;53.80;;;;;;4877833;29;20681;-34
2022/09/21 04:09:27;;;;;;;3.60;2.70;;;17.70;53.70;;;;;;4877570;29;20236;-39
2022/09/21 04:11:57;;;;;;;3.70;2.72;;;17.70;53.70;;;;;;4878274;29;20202;-34
2022/09/21 04:14:28;;;;;;;3.97;2.92;;;17.70;53.60;;;;;;4877465;29;20209;-37
2022/09/21 04:16:59;;;;;;;4.20;3.17;;;17.70;53.60;;;;;;4877500;29;20260;-34
2022/09/21 04:19:31;;;;;;;5.10;3.38;;;17.70;53.60;;;;;;4877683;29;20225;-34
2022/09/21 04:22:02;;;;;;;4.65;3.30;;;17.70;53.60;;;;;;4876719;29;20486;-37
2022/09/21 04:24:33;;;;;;;4.00;3.30;;;17.70;53.60;;;;;;4877612;29;20202;-35
2022/09/21 04:27:03;;;;;;;4.70;3.20;;;17.70;53.60;;;;;;4877021;29;20220;-38
2022/09/21 04:29:34;;;;;;;5.22;3.28;;;17.70;53.60;;;;;;4875029;29;20232;-34
2022/09/21 04:32:05;;;;;;;4.82;3.53;;;17.70;53.70;;;;;;4877517;29;20234;-40
2022/09/21 04:34:38;;;;;;;4.00;3.60;;;17.70;53.80;;;;;;4877385;29;20546;-35
2022/09/21 04:37:09;;;;;;;4.28;3.63;;;17.70;53.90;;;;;;4885779;29;20224;-37
2022/09/21 04:39:40;;;;;;;4.43;3.80;;;17.70;53.90;;;;;;4896830;29;20307;-35
2022/09/21 04:42:12;;;;;;;4.32;3.53;;;17.70;53.80;;;;;;4895578;29;20588;-44
2022/09/21 04:44:42;;;;;;;5.05;3.92;;;17.70;53.80;;;;;;4895789;29;20208;-36
2022/09/21 04:47:13;;;;;;;4.75;3.22;;;17.70;53.70;;;;;;4895983;29;20571;-38
2022/09/21 04:49:45;;;;;;;5.93;4.28;;;17.70;53.70;;;;;;4890864;29;20602;-35
2022/09/21 04:52:16;;;;;;;6.43;4.57;;;17.70;53.80;;;;;;4886220;29;20198;-35
2022/09/21 04:54:47;;;;;;;5.82;4.32;;;17.70;54.40;;;;;;4876530;29;20214;-39
2022/09/21 04:57:18;;;;;;;5.25;4.25;;;17.70;53.80;;;;;;4876297;29;20706;-41
2022/09/21 04:59:48;;;;;;;5.28;4.13;;;17.70;53.90;;;;;;4876349;29;20205;-35
2022/09/21 05:02:19;;;;;;;4.65;3.65;;;17.70;53.90;;;;;;4877483;29;20208;-35
2022/09/21 05:04:51;;;;;;;4.28;3.70;;;17.70;53.90;;;;;;4876916;29;20197;-34
2022/09/21 05:07:22;;;;;;;5.88;4.20;;;17.70;53.90;;;;;;4877160;29;20198;-36
2022/09/21 05:10:03;;;;;;;5.80;4.10;;;17.70;53.90;;;;;;4876674;29;20221;-42
2022/09/21 05:12:35;;;;;;;6.15;4.40;;;17.70;53.90;;;;;;4877411;29;20194;-39
2022/09/21 05:15:06;;;;;;;4.22;3.20;;;17.60;53.80;;;;;;4876886;29;20201;-37
2022/09/21 05:17:36;;;;;;;5.65;4.20;;;17.70;53.90;;;;;;4876816;29;20344;-36
2022/09/21 05:20:09;;;;;;;6.38;4.43;;;17.60;53.90;;;;;;4876831;29;20224;-35
2022/09/21 05:22:40;;;;;;;5.07;3.65;;;17.60;54.00;;;;;;4876638;29;20205;-36
2022/09/21 05:25:11;;;;;;;4.88;4.10;;;17.60;54.00;;;;;;4877528;29;20208;-39
2022/09/21 05:27:43;;;;;;;5.20;3.67;;;17.60;53.90;;;;;;4876343;29;20222;-35
2022/09/21 05:30:14;;;;;;;5.03;3.90;;;17.60;54.00;;;;;;4876666;29;20666;-35
2022/09/21 05:32:50;;;;;;;5.18;4.40;;;17.60;54.00;;;;;;4875801;29;20205;-34
2022/09/21 05:35:32;;;;;;;6.30;4.55;;;17.60;54.10;;;;;;4877170;29;20200;-35
2022/09/21 05:38:08;;;;;;;7.30;5.03;;;17.60;54.10;;;;;;4876312;29;20255;-35
2022/09/21 05:40:39;;;;;;;6.97;5.18;;;17.60;54.10;;;;;;4876694;29;20208;-35
2022/09/21 05:43:11;;;;;;;7.50;5.07;;;17.60;54.10;;;;;;4876564;29;20198;-34
2022/09/21 05:45:45;;;;;;;6.78;5.13;;;17.60;54.10;;;;;;4876711;29;20667;-35
2022/09/21 05:48:19;;;;;;;6.32;4.63;;;17.60;54.20;;;;;;4875836;29;20225;-35
2022/09/21 05:50:58;;;;;;;6.13;4.70;;;17.60;54.20;;;;;;4876701;29;20205;-44
2022/09/21 05:53:54;;;;;;;6.75;5.07;;;17.60;54.30;;;;;;4877039;29;20198;-37
2022/09/21 05:56:38;;;;;;;8.20;5.20;;;17.60;54.20;;;;;;4876712;29;20205;-34
2022/09/21 05:59:27;;;;;;;7.07;4.95;;;17.60;54.40;;;;;;4858285;29;20222;-38
2022/09/21 06:02:05;;;;;;;6.70;5.07;;;17.60;54.40;;;;;;4880615;29;20563;-37
2022/09/21 06:04:36;;;;;;;8.55;5.40;;;17.60;54.40;;;;;;4895363;29;20196;-37
2022/09/21 06:07:09;;;;;;;7.20;5.20;;;17.60;54.40;;;;;;4894216;29;20212;-35
2022/09/21 06:09:40;;;;;;;8.07;5.45;;;17.60;54.40;;;;;;4895816;29;20236;-44
2022/09/21 06:12:11;;;;;;;6.85;5.95;;;17.60;54.40;;;;;;4895013;29;20236;-35
2022/09/21 06:14:42;;;;;;;8.32;5.50;;;17.60;54.40;;;;;;4895118;29;20197;-38
2022/09/21 06:17:13;;;;;;;7.13;5.30;;;17.60;54.50;;;;;;4894595;29;20236;-38
2022/09/21 06:19:44;;;;;;;7.80;5.38;;;17.60;54.50;;;;;;4894711;29;20224;-36
2022/09/21 06:22:16;;;;;;;6.82;5.60;;;17.60;54.50;;;;;;4894195;29;20212;-38
2022/09/21 06:24:47;;;;;;;7.78;5.32;;;17.60;54.50;;;;;;4881191;29;20236;-47
2022/09/21 06:27:18;;;;;;;7.97;5.85;;;17.50;54.50;;;;;;4876232;29;20198;-38
2022/09/21 06:29:49;;;;;;;6.50;5.30;;;17.50;54.50;;;;;;4876471;29;20225;-39
2022/09/21 06:32:20;;;;;;;6.97;5.50;;;17.50;54.60;;;;;;4876630;29;20217;-34
2022/09/21 06:34:51;;;;;;;7.43;5.15;;;17.50;54.70;;;;;;4875823;29;20202;-34
2022/09/21 06:37:24;;;;;;;9.00;5.78;;;17.50;54.80;;;;;;4876100;29;20221;-35
2022/09/21 06:39:54;;;;;;;6.78;4.85;;;17.50;54.70;;;;;;4878926;29;20232;-34
2022/09/21 06:42:25;;;;;;;6.20;5.07;;;17.50;54.70;;;;;;4879190;29;20201;-38
2022/09/21 06:44:56;;;;;;;7.20;5.32;;;17.50;54.70;;;;;;4879007;29;20206;-34
2022/09/21 06:47:27;;;;;;;7.97;5.50;;;17.50;54.70;;;;;;4880240;29;20189;-39
2022/09/21 06:49:57;;;;;;;6.00;5.15;;;17.50;54.80;;;;;;4879415;29;20208;-34
2022/09/21 06:52:30;;;;;;;6.72;5.28;;;17.50;54.80;;;;;;4879360;29;20193;-34
2022/09/21 06:55:01;;;;;;;8.20;5.75;;;17.50;54.80;;;;;;4879397;29;20665;-40
2022/09/21 06:57:32;;;;;;;7.15;5.20;;;17.50;54.80;;;;;;4879044;29;20579;-43
2022/09/21 07:00:03;;;;;;;7.95;5.45;;;17.50;54.80;;;;;;4879239;29;20201;-34
2022/09/21 07:02:34;;;;;;;7.30;5.72;;;17.50;54.80;;;;;;4878153;29;20201;-35
2022/09/21 07:05:04;;;;;;;6.72;5.45;;;17.50;54.80;;;;;;4878588;29;20208;-34
2022/09/21 07:07:37;;;;;;;6.07;5.32;;;17.40;54.90;;;;;;4879625;29;20201;-35
2022/09/21 07:10:09;;;;;;;7.78;5.80;;;17.40;54.90;;;;;;4879628;29;20296;-34
2022/09/21 07:12:40;;;;;;;7.82;5.90;;;17.50;54.90;;;;;;4877812;29;20197;-37
2022/09/21 07:15:12;;;;;;;6.82;5.15;;;17.50;54.80;;;;;;4878849;29;20208;-36
2022/09/21 07:17:43;;;;;;;8.20;6.05;;;17.50;54.80;;;;;;4878075;29;20217;-34
2022/09/21 07:20:14;;;;;;;7.00;5.50;;;17.50;54.90;;;;;;4877955;29;20202;-43
2022/09/21 07:22:46;;;;;;;8.05;5.95;;;17.50;54.90;;;;;;4878731;29;20558;-35
2022/09/21 07:25:17;;;;;;;5.97;5.05;;;17.50;54.90;;;;;;4877977;29;20201;-36
2022/09/21 07:27:48;;;;;;;6.55;5.35;;;17.40;54.90;;;;;;4878000;29;20276;-39
2022/09/21 07:30:18;;;;;;;7.10;5.50;;;17.40;54.90;;;;;;4874007;29;20206;-40
2022/09/21 07:32:49;;;;;;;5.30;4.63;;;17.40;54.90;;;;;;4870266;29;20240;-39
2022/09/21 07:35:20;;;;;;;5.85;4.85;;;17.40;54.80;;;;;;4877641;29;20198;-34
2022/09/21 07:37:52;;;;;;;5.72;4.93;;;17.40;54.90;;;;;;4877357;29;20320;-35
2022/09/21 07:40:23;;;;;;;6.57;5.00;;;17.40;54.80;;;;;;4877748;29;20205;-35
2022/09/21 07:42:53;;;;;;;6.25;4.88;;;17.40;54.80;;;;;;4877895;29;20204;-40
2022/09/21 07:45:24;;;;;;;8.07;5.63;;;17.40;54.80;;;;;;4877457;29;20221;-43
2022/09/21 07:47:55;;;;;;;5.35;4.82;;;17.40;54.70;;;;;;4858485;29;20221;-35
2022/09/21 07:50:26;;;;;;;6.60;4.97;;;17.30;54.70;;;;;;4857405;29;20202;-36
2022/09/21 07:53:00;;;;;;;6.50;5.30;;;17.40;54.70;;;;;;4858268;29;20609;-35
2022/09/21 07:55:31;;;;;;;5.10;4.38;;;17.40;54.80;;;;;;4863186;29;20210;-35
2022/09/21 08:00:48;;;;;;;5.22;4.72;;;17.40;54.80;;;;;;4860243;29;20209;-35
2022/09/21 08:03:18;;;;;;;7.20;4.70;;;17.40;55.00;;;;;;4893469;29;20193;-35
2022/09/21 08:05:49;;;;;;;6.68;4.82;;;17.30;54.70;;;;;;4896126;29;20213;-35
2022/09/21 08:08:22;;;;;;;5.40;4.45;;;17.30;54.70;;;;;;4896524;29;20232;-35
2022/09/21 08:10:54;;;;;;;7.30;5.15;;;17.30;54.70;;;;;;4895532;29;20203;-40
2022/09/21 08:13:25;;;;;;;7.10;5.10;;;17.30;54.80;;;;;;4895528;29;20201;-41
2022/09/21 08:16:01;;;;;;;5.45;4.82;;;17.30;54.70;;;;;;4892271;29;20227;-35
2022/09/21 08:18:32;;;;;;;6.75;5.03;;;17.30;54.70;;;;;;4876682;29;20698;-36
2022/09/21 08:21:03;;;;;;;6.80;5.13;;;17.30;54.70;;;;;;4877025;29;20202;-37
2022/09/21 08:23:41;;;;;;;5.88;5.20;;;17.30;54.60;;;;;;4876826;29;20208;-38
2022/09/21 08:26:18;;;;;;;5.57;4.75;;;17.30;54.70;;;;;;4876495;29;20206;-35
2022/09/21 08:28:50;;;;;;;6.82;5.40;;;17.30;54.70;;;;;;4876470;29;20221;-34
2022/09/21 08:31:21;;;;;;;5.85;4.80;;;17.30;54.70;;;;;;4876259;29;20233;-34
2022/09/21 08:33:53;;;;;;;5.43;4.50;;;17.30;54.70;;;;;;4876240;29;20205;-39
2022/09/21 08:36:24;;;;;;;5.93;4.97;;;17.30;54.80;;;;;;4876486;29;20204;-38
2022/09/21 08:38:56;;;;;;;6.63;5.20;;;17.30;54.70;;;;;;4876397;29;20255;-37
2022/09/21 08:41:36;;;;;;;5.57;5.00;;;17.30;54.70;;;;;;4876500;29;20206;-35
2022/09/21 08:44:12;;;;;;;5.20;4.57;;;17.30;55.00;;;;;;4876034;29;20205;-38
2022/09/21 08:46:45;;;;;;;5.22;4.50;;;17.20;54.70;;;;;;4875531;29;20214;-36
2022/09/21 08:49:20;;;;;;;5.63;4.40;;;17.20;54.70;;;;;;4876231;29;20236;-37
2022/09/21 08:51:56;;;;;;;4.88;4.40;;;17.20;54.70;;;;;;4876154;29;20280;-44
2022/09/21 08:54:34;;;;;;;5.50;4.70;;;17.30;55.30;;;;;;4875882;29;20209;-34
2022/09/21 08:57:04;;;;;;;5.22;4.38;;;17.30;54.60;;;;;;4875689;29;20213;-35
2022/09/21 08:59:36;;;;;;;4.82;4.32;;;17.20;54.60;;;;;;4875199;29;20230;-35
2022/09/21 09:02:23;;;;;;;6.03;4.63;;;17.20;54.60;;;;;;4875471;29;20201;-35
2022/09/21 09:05:05;;;;;;;5.65;4.32;;;17.20;54.60;;;;;;4876221;29;20197;-37
2022/09/21 09:07:53;;;;;;;4.85;4.35;;;17.20;54.60;;;;;;4876438;29;20212;-39
2022/09/21 09:10:38;;;;;;;6.38;4.70;;;17.20;54.70;;;;;;4876000;29;20201;-35
2022/09/21 09:13:30;;;;;;;5.15;4.07;;;17.20;54.70;;;;;;4875936;29;20204;-38
2022/09/21 09:16:07;;;;;;;4.57;4.13;;;17.10;54.60;;;;;;4875667;29;20208;-34
2022/09/21 09:18:45;;;;;;;4.90;4.43;;;17.20;54.70;;;;;;4875764;29;20241;-35
2022/09/21 09:21:21;;;;;;;4.40;4.00;;;17.20;54.60;;;;;;4876110;29;20632;-36
2022/09/21 09:23:56;;;;;;;7.28;5.03;;;17.20;54.60;;;;;;4876274;29;20208;-37
2022/09/21 09:26:34;;;;;;;4.80;4.30;;;17.20;54.60;;;;;;4876268;29;20291;-34
2022/09/21 09:29:13;;;;;;;4.85;4.20;;;17.20;54.60;;;;;;4875633;29;20757;-35
2022/09/21 09:31:45;;;;;;;4.43;4.03;;;17.20;54.60;;;;;;4873684;29;20240;-34
2022/09/21 09:34:21;;;;;;;5.75;4.60;;;17.20;54.60;;;;;;4876018;29;20585;-34
2022/09/21 09:36:57;;;;;;;5.18;4.68;;;17.10;54.60;;;;;;4876193;29;20271;-35
2022/09/21 09:39:30;;;;;;;4.55;4.15;;;17.10;54.60;;;;;;4875473;29;20233;-35
2022/09/21 09:42:28;;;;;;;4.32;3.85;;;17.10;54.60;;;;;;4875743;29;20650;-35
2022/09/21 09:45:18;;;;;;;4.10;3.70;;;17.10;54.60;;;;;;4875338;29;20197;-38
2022/09/21 09:48:01;;;;;;;4.90;4.40;;;17.10;54.60;;;;;;4875142;29;20212;-34
2022/09/21 09:50:34;;;;;;;4.72;4.05;;;17.10;54.70;;;;;;4876116;29;20201;-41
2022/09/21 09:53:11;;;;;;;5.60;4.13;;;17.10;54.70;;;;;;4878419;29;20224;-34
2022/09/21 09:55:43;;;;;;;5.75;4.55;;;17.10;55.00;;;;;;4875937;29;20209;-39
2022/09/21 09:58:20;;;;;;;5.45;4.82;;;17.10;55.40;;;;;;4875487;29;20261;-35
2022/09/21 10:00:54;;;;;;;5.65;4.18;;;17.10;55.50;;;;;;4875157;29;20545;-39
2022/09/21 10:03:26;;;;;;;5.80;4.57;;;17.10;55.60;;;;;;4874955;29;20201;-35
2022/09/21 10:05:57;;;;;;;4.90;4.35;;;17.20;55.70;;;;;;4875410;29;20295;-39
2022/09/21 10:08:45;;;;;;;5.03;4.45;;;17.20;55.70;;;;;;4875550;29;20225;-42
2022/09/21 10:11:17;;;;;;;4.80;4.40;;;17.20;55.70;;;;;;4875633;29;20670;-36
2022/09/21 10:13:50;;;;;;;4.63;4.22;;;17.20;55.60;;;;;;4877377;29;20367;-35
2022/09/21 10:16:24;;;;;;;4.45;4.05;;;17.10;55.60;;;;;;4874514;29;20205;-35
2022/09/21 10:18:57;;;;;;;4.22;3.80;;;17.20;55.60;;;;;;4878802;29;20234;-34
2022/09/21 10:21:34;;;;;;;5.13;4.47;;;17.10;55.50;;;;;;4880434;29;20838;-34
2022/09/21 10:24:07;;;;;;;5.18;3.95;;;17.10;55.40;;;;;;4864422;29;20205;-38
2022/09/21 10:26:41;;;;;;;5.13;3.80;;;17.10;55.30;;;;;;4879190;29;20208;-38
2022/09/21 10:29:31;;;;;;;5.22;4.20;;;17.10;55.30;;;;;;4870792;29;20229;-39
2022/09/21 10:32:03;;;;;;;4.40;3.78;;;17.10;55.30;;;;;;4864942;29;20194;-44
2022/09/21 10:34:35;;;;;;;4.32;3.72;;;17.10;55.20;;;;;;4863526;29;20631;-37
2022/09/21 10:37:27;;;;;;;4.70;4.18;;;17.10;55.30;;;;;;4880082;29;20198;-35
2022/09/21 10:39:58;;;;;;;4.85;4.10;;;17.10;55.30;;;;;;4874505;29;20238;-46
2022/09/21 10:42:32;;;;;;;4.53;3.90;;;17.10;55.30;;;;;;4873384;29;20705;-50
2022/09/21 10:45:17;;;;;;;4.13;3.72;;;17.10;55.30;;;;;;4879182;29;20202;-46
2022/09/21 10:47:51;;;;;;;4.55;4.15;;;17.10;55.30;;;;;;4879910;29;20208;-50
2022/09/21 10:50:28;;;;;;;4.72;4.05;;;17.10;55.30;;;;;;4879668;29;20201;-48
2022/09/21 10:53:02;;;;;;;3.75;3.45;;;17.00;55.30;;;;;;4879469;29;20197;-47
2022/09/21 10:55:33;;;;;;;4.45;4.05;;;17.10;55.30;;;;;;4879703;29;20220;-49
2022/09/21 10:58:04;;;;;;;4.40;3.95;;;17.10;55.20;;;;;;4879334;29;20224;-35
2022/09/21 11:00:45;;;;;;;4.22;3.83;;;17.10;55.20;;;;;;4879356;29;20208;-44
2022/09/21 11:03:40;;;;;;;5.13;4.00;;;17.10;55.20;;;;;;4879225;29;20596;-35
2022/09/21 11:06:16;;;;;;;4.72;3.65;;;17.10;55.20;;;;;;4878751;29;20863;-39
2022/09/21 11:08:52;;;;;;;4.47;3.67;;;17.00;55.20;;;;;;4879752;29;20233;-35
2022/09/21 11:11:46;;;;;;;3.88;3.47;;;17.00;55.20;;;;;;4878680;29;20202;-35
2022/09/21 11:14:29;;;;;;;4.30;3.90;;;17.00;55.20;;;;;;4897688;29;20205;-35
2022/09/21 11:17:07;;;;;;;4.40;3.70;;;17.00;55.20;;;;;;4896625;29;20201;-35
2022/09/21 11:19:41;;;;;;;4.20;3.80;;;17.00;55.20;;;;;;4898062;29;20228;-46
2022/09/21 11:22:19;;;;;;;4.75;3.90;;;17.00;55.30;;;;;;4896910;29;20196;-36
2022/09/21 11:24:56;;;;;;;4.45;3.83;;;17.00;55.60;;;;;;4891629;29;20564;-36
2022/09/21 11:27:28;;;;;;;4.25;3.80;;;17.00;55.50;;;;;;4879189;29;20221;-35
2022/09/21 11:30:06;;;;;;;4.80;3.42;;;17.00;55.40;;;;;;4879025;29;20228;-41
2022/09/21 11:33:01;;;;;;;3.95;3.40;;;17.00;55.40;;;;;;4879779;29;20329;-37
2022/09/21 11:35:45;;;;;;;4.32;3.70;;;17.00;55.30;;;;;;4879071;29;20209;-36
2022/09/21 11:38:23;;;;;;;4.47;3.92;;;17.00;55.30;;;;;;4878673;29;20222;-43
2022/09/21 11:41:21;;;;;;;3.65;3.35;;;17.00;55.30;;;;;;4878155;29;20205;-35
2022/09/21 11:44:12;;;;;;;4.43;3.95;;;17.00;55.30;;;;;;4874416;29;20205;-34
2022/09/21 11:46:47;;;;;;;4.35;3.42;;;17.00;55.30;;;;;;4881530;29;20649;-37
2022/09/21 11:49:42;;;;;;;5.10;3.63;;;17.00;55.30;;;;;;4897381;29;20225;-35
2022/09/21 11:52:25;;;;;;;4.50;3.97;;;16.90;55.30;;;;;;4889056;29;20193;-34
2022/09/21 11:55:13;;;;;;;3.53;3.22;;;16.90;55.30;;;;;;4890696;29;20209;-37
2022/09/21 11:57:47;;;;;;;3.92;3.50;;;16.90;55.30;;;;;;4878161;29;20198;-46
2022/09/21 12:00:20;;;;;;;4.22;3.70;;;16.90;55.30;;;;;;4878225;29;20233;-52
2022/09/21 12:03:39;;;;;;;4.15;3.30;;;16.90;55.30;;;;;;4877818;29;20666;-42
2022/09/21 12:06:22;;;;;;;3.97;3.47;;;16.90;55.20;;;;;;4877629;29;20209;-40
2022/09/21 12:09:12;;;;;;;3.72;3.42;;;16.90;55.10;;;;;;4859948;29;20234;-43
2022/09/21 12:11:46;;;;;;;3.67;3.38;;;16.90;55.20;;;;;;4867206;29;20205;-47
2022/09/21 12:14:27;;;;;;;4.95;3.78;;;16.90;55.20;;;;;;4877852;29;20748;-46
2022/09/21 12:17:03;;;;;;;4.00;3.40;;;16.90;55.30;;;;;;4878184;29;20204;-51
2022/09/21 12:19:40;;;;;;;4.97;3.30;;;16.90;55.30;;;;;;4877902;29;20237;-50
2022/09/21 12:22:18;;;;;;;3.15;2.85;;;16.80;55.20;;;;;;4878058;29;20208;-39
2022/09/21 12:24:52;;;;;;;4.35;3.30;;;16.80;55.20;;;;;;4875879;29;20201;-35
2022/09/21 12:27:29;;;;;;;4.45;3.10;;;16.80;55.80;;;;;;4865350;29;20205;-38
2022/09/21 12:30:05;;;;;;;3.65;3.33;;;16.80;55.20;;;;;;4877447;29;20217;-38
2022/09/21 12:32:49;;;;;;;4.03;3.22;;;16.80;55.20;;;;;;4878077;29;20209;-41
2022/09/21 12:35:25;;;;;;;4.35;3.38;;;16.90;55.20;;;;;;4877540;29;20205;-47
2022/09/21 12:38:03;;;;;;;3.70;3.28;;;16.80;55.10;;;;;;4877941;29;20193;-34
2022/09/21 12:40:42;;;;;;;3.67;3.05;;;16.80;55.10;;;;;;4877399;29;20221;-36
2022/09/21 12:43:23;;;;;;;3.67;3.15;;;16.90;55.10;;;;;;4877904;29;20629;-37
2022/09/21 12:45:59;;;;;;;3.63;3.20;;;16.80;55.10;;;;;;4877568;29;20586;-36
2022/09/21 12:48:37;;;;;;;3.67;3.15;;;16.80;55.20;;;;;;4876594;29;20212;-37
2022/09/21 12:51:14;;;;;;;3.35;3.05;;;16.80;55.10;;;;;;4876784;29;20220;-38
2022/09/21 12:53:49;;;;;;;3.20;2.75;;;16.80;55.20;;;;;;4876616;29;20288;-35
2022/09/21 12:56:30;;;;;;;4.03;3.20;;;16.80;55.10;;;;;;4876336;29;20212;-38
2022/09/21 12:59:19;;;;;;;3.42;3.13;;;16.70;55.10;;;;;;4876006;29;20229;-36
2022/09/21 13:01:54;;;;;;;3.53;3.10;;;16.70;55.10;;;;;;4875815;29;20614;-35
2022/09/21 13:04:40;;;;;;;4.00;3.47;;;16.80;55.10;;;;;;4876713;29;20205;-34
2022/09/21 13:07:40;;;;;;;4.18;3.17;;;16.70;55.10;;;;;;4876718;29;20219;-35
2022/09/21 13:10:22;;;;;;;3.15;2.85;;;16.80;55.10;;;;;;4875020;29;20233;-34
2022/09/21 13:12:58;;;;;;;6.20;2.92;;;16.70;55.00;;;;;;4875734;29;20742;-35
2022/09/21 13:15:32;;;;;;;3.63;3.10;;;16.70;55.00;;;;;;4876335;29;20249;-35
2022/09/21 13:18:08;;;;;;;3.72;3.17;;;16.70;55.00;;;;;;4876376;29;20204;-35
2022/09/21 13:20:40;;;;;;;4.25;3.35;;;16.70;55.10;;;;;;4876027;29;20229;-35
2022/09/21 13:23:18;;;;;;;3.33;3.03;;;16.70;55.10;;;;;;4876024;29;20208;-35
2022/09/21 13:26:02;;;;;;;3.10;2.80;;;16.70;55.10;;;;;;4876271;29;20216;-37
2022/09/21 13:29:05;;;;;;;3.67;2.80;;;16.70;55.10;;;;;;4875835;29;20226;-35
2022/09/21 13:31:57;;;;;;;3.58;3.10;;;16.60;55.10;;;;;;4875836;29;20201;-37